Terminal Aerodrome Forecast
Issued by NWS Atlanta, GA

Home | Current Version | Previous Version | Text Only | Print | Product List | Glossary On
Versions: 1 2 3 4 5 6 7 8 9 10 11 12 13 14 15 16 17 18 19 20 21 22 23 24 25 26 27 28 29 30 31 32 33 34 35 36 37
000
FTUS42 KFFC 271720
TAFATL
TAF
KATL 271720Z 2718/2824 30015G25KT P6SM BKN040
     FM280000 32010G20KT P6SM SCT040
     FM280400 32008KT P6SM FEW040
     FM281200 33005KT P6SM SKC
     FM282100 23006KT P6SM SKC=

USA.gov is the U.S. government's official web portal to all federal, state and local government web resources and services.